sensor_id;sensor_type;location;lat;lon;timestamp;P1;durP1;ratioP1;P2;durP2;ratioP2
17330;SDS011;8783;52.448;4.638;2023-08-06T00:02:23;5.10;;;2.72;;
17330;SDS011;8783;52.448;4.638;2023-08-06T00:04:48;4.32;;;2.40;;
17330;SDS011;8783;52.448;4.638;2023-08-06T00:07:14;5.30;;;2.65;;
17330;SDS011;8783;52.448;4.638;2023-08-06T00:09:39;4.22;;;2.35;;
17330;SDS011;8783;52.448;4.638;2023-08-06T00:12:05;4.60;;;2.50;;
17330;SDS011;8783;52.448;4.638;2023-08-06T00:14:31;2.88;;;2.15;;
17330;SDS011;8783;52.448;4.638;2023-08-06T00:16:56;3.40;;;2.22;;
17330;SDS011;8783;52.448;4.638;2023-08-06T00:19:23;3.63;;;2.20;;
17330;SDS011;8783;52.448;4.638;2023-08-06T00:21:48;3.00;;;2.10;;
17330;SDS011;8783;52.448;4.638;2023-08-06T00:24:14;3.20;;;2.15;;
17330;SDS011;8783;52.448;4.638;2023-08-06T00:26:39;6.00;;;2.58;;
17330;SDS011;8783;52.448;4.638;2023-08-06T00:29:05;4.15;;;2.60;;
17330;SDS011;8783;52.448;4.638;2023-08-06T00:31:31;3.80;;;2.50;;
17330;SDS011;8783;52.448;4.638;2023-08-06T00:33:56;5.13;;;2.53;;
17330;SDS011;8783;52.448;4.638;2023-08-06T00:36:22;3.05;;;2.30;;
17330;SDS011;8783;52.448;4.638;2023-08-06T00:38:48;3.97;;;2.65;;
17330;SDS011;8783;52.448;4.638;2023-08-06T00:41:13;3.28;;;2.30;;
17330;SDS011;8783;52.448;4.638;2023-08-06T00:43:39;3.08;;;2.40;;
17330;SDS011;8783;52.448;4.638;2023-08-06T00:46:05;3.03;;;2.25;;
17330;SDS011;8783;52.448;4.638;2023-08-06T00:48:31;3.33;;;2.30;;
17330;SDS011;8783;52.448;4.638;2023-08-06T00:50:56;4.50;;;2.60;;
17330;SDS011;8783;52.448;4.638;2023-08-06T00:53:22;4.75;;;2.60;;
17330;SDS011;8783;52.448;4.638;2023-08-06T00:55:49;4.53;;;2.65;;
17330;SDS011;8783;52.448;4.638;2023-08-06T00:58:16;3.20;;;2.53;;
17330;SDS011;8783;52.448;4.638;2023-08-06T01:00:41;3.20;;;2.08;;
17330;SDS011;8783;52.448;4.638;2023-08-06T01:03:07;4.13;;;2.40;;
17330;SDS011;8783;52.448;4.638;2023-08-06T01:05:33;4.57;;;2.50;;
17330;SDS011;8783;52.448;4.638;2023-08-06T01:10:57;3.42;;;2.40;;
17330;SDS011;8783;52.448;4.638;2023-08-06T01:16:11;3.17;;;2.28;;
17330;SDS011;8783;52.448;4.638;2023-08-06T01:18:40;4.68;;;2.40;;
17330;SDS011;8783;52.448;4.638;2023-08-06T01:21:06;3.42;;;2.30;;
17330;SDS011;8783;52.448;4.638;2023-08-06T01:23:32;4.00;;;2.30;;
17330;SDS011;8783;52.448;4.638;2023-08-06T01:28:37;3.42;;;2.40;;
17330;SDS011;8783;52.448;4.638;2023-08-06T01:31:15;2.88;;;2.20;;
17330;SDS011;8783;52.448;4.638;2023-08-06T01:33:52;3.00;;;1.98;;
17330;SDS011;8783;52.448;4.638;2023-08-06T01:36:20;3.63;;;2.03;;
17330;SDS011;8783;52.448;4.638;2023-08-06T01:38:47;2.90;;;2.08;;
17330;SDS011;8783;52.448;4.638;2023-08-06T01:41:13;2.28;;;1.77;;
17330;SDS011;8783;52.448;4.638;2023-08-06T01:43:39;2.22;;;2.03;;
17330;SDS011;8783;52.448;4.638;2023-08-06T01:46:05;3.08;;;2.00;;
17330;SDS011;8783;52.448;4.638;2023-08-06T01:48:30;3.15;;;2.15;;
17330;SDS011;8783;52.448;4.638;2023-08-06T01:50:56;3.05;;;2.33;;
17330;SDS011;8783;52.448;4.638;2023-08-06T01:53:21;2.97;;;2.08;;
17330;SDS011;8783;52.448;4.638;2023-08-06T01:55:47;2.92;;;1.98;;
17330;SDS011;8783;52.448;4.638;2023-08-06T01:58:14;3.00;;;1.88;;
17330;SDS011;8783;52.448;4.638;2023-08-06T02:00:40;2.58;;;1.83;;
17330;SDS011;8783;52.448;4.638;2023-08-06T02:03:05;2.38;;;2.03;;
17330;SDS011;8783;52.448;4.638;2023-08-06T02:05:31;3.15;;;2.03;;
17330;SDS011;8783;52.448;4.638;2023-08-06T02:07:57;2.22;;;1.88;;
17330;SDS011;8783;52.448;4.638;2023-08-06T02:10:23;2.92;;;1.98;;
17330;SDS011;8783;52.448;4.638;2023-08-06T02:12:48;2.60;;;1.85;;
17330;SDS011;8783;52.448;4.638;2023-08-06T02:15:14;2.65;;;2.03;;
17330;SDS011;8783;52.448;4.638;2023-08-06T02:17:40;2.38;;;2.15;;
17330;SDS011;8783;52.448;4.638;2023-08-06T02:20:05;2.78;;;1.98;;
17330;SDS011;8783;52.448;4.638;2023-08-06T02:22:31;2.85;;;1.85;;
17330;SDS011;8783;52.448;4.638;2023-08-06T02:24:58;3.78;;;2.28;;
17330;SDS011;8783;52.448;4.638;2023-08-06T02:27:24;2.58;;;1.67;;
17330;SDS011;8783;52.448;4.638;2023-08-06T02:29:49;4.15;;;2.08;;
17330;SDS011;8783;52.448;4.638;2023-08-06T02:32:15;2.70;;;1.90;;
17330;SDS011;8783;52.448;4.638;2023-08-06T02:34:40;2.72;;;1.90;;
17330;SDS011;8783;52.448;4.638;2023-08-06T02:37:06;6.85;;;2.45;;
17330;SDS011;8783;52.448;4.638;2023-08-06T02:39:32;2.50;;;1.77;;
17330;SDS011;8783;52.448;4.638;2023-08-06T02:41:58;2.25;;;1.92;;
17330;SDS011;8783;52.448;4.638;2023-08-06T02:44:27;1.95;;;1.80;;
17330;SDS011;8783;52.448;4.638;2023-08-06T02:46:53;1.98;;;1.70;;
17330;SDS011;8783;52.448;4.638;2023-08-06T02:49:18;2.72;;;1.90;;
17330;SDS011;8783;52.448;4.638;2023-08-06T02:51:47;2.83;;;2.10;;
17330;SDS011;8783;52.448;4.638;2023-08-06T02:54:13;3.40;;;1.80;;
17330;SDS011;8783;52.448;4.638;2023-08-06T02:56:38;1.65;;;1.50;;
17330;SDS011;8783;52.448;4.638;2023-08-06T02:59:08;3.15;;;1.42;;
17330;SDS011;8783;52.448;4.638;2023-08-06T03:01:34;2.13;;;1.45;;
17330;SDS011;8783;52.448;4.638;2023-08-06T03:04:01;2.13;;;1.30;;
17330;SDS011;8783;52.448;4.638;2023-08-06T03:06:27;1.95;;;1.30;;
17330;SDS011;8783;52.448;4.638;2023-08-06T03:08:52;2.55;;;1.42;;
17330;SDS011;8783;52.448;4.638;2023-08-06T03:11:18;3.05;;;1.55;;
17330;SDS011;8783;52.448;4.638;2023-08-06T03:13:43;3.55;;;1.38;;
17330;SDS011;8783;52.448;4.638;2023-08-06T03:16:09;2.00;;;1.40;;
17330;SDS011;8783;52.448;4.638;2023-08-06T03:18:35;2.42;;;1.30;;
17330;SDS011;8783;52.448;4.638;2023-08-06T03:21:00;4.38;;;1.58;;
17330;SDS011;8783;52.448;4.638;2023-08-06T03:23:29;2.35;;;1.23;;
17330;SDS011;8783;52.448;4.638;2023-08-06T03:25:55;2.03;;;1.45;;
17330;SDS011;8783;52.448;4.638;2023-08-06T03:28:20;3.90;;;1.33;;
17330;SDS011;8783;52.448;4.638;2023-08-06T03:30:47;3.58;;;1.45;;
17330;SDS011;8783;52.448;4.638;2023-08-06T03:33:13;2.33;;;1.38;;
17330;SDS011;8783;52.448;4.638;2023-08-06T03:35:38;2.53;;;1.55;;
17330;SDS011;8783;52.448;4.638;2023-08-06T03:38:04;4.63;;;1.85;;
17330;SDS011;8783;52.448;4.638;2023-08-06T03:40:30;4.18;;;1.50;;
17330;SDS011;8783;52.448;4.638;2023-08-06T03:42:56;2.47;;;1.42;;
17330;SDS011;8783;52.448;4.638;2023-08-06T03:45:21;2.55;;;1.50;;
17330;SDS011;8783;52.448;4.638;2023-08-06T03:47:47;3.05;;;1.48;;
17330;SDS011;8783;52.448;4.638;2023-08-06T03:50:13;3.13;;;1.30;;
17330;SDS011;8783;52.448;4.638;2023-08-06T03:52:38;1.73;;;1.02;;
17330;SDS011;8783;52.448;4.638;2023-08-06T03:55:04;1.65;;;1.13;;
17330;SDS011;8783;52.448;4.638;2023-08-06T03:57:30;1.95;;;1.10;;
17330;SDS011;8783;52.448;4.638;2023-08-06T03:59:56;2.65;;;1.05;;
17330;SDS011;8783;52.448;4.638;2023-08-06T04:02:21;1.30;;;0.90;;
17330;SDS011;8783;52.448;4.638;2023-08-06T04:04:47;2.03;;;1.40;;
17330;SDS011;8783;52.448;4.638;2023-08-06T04:07:13;1.80;;;1.00;;
17330;SDS011;8783;52.448;4.638;2023-08-06T04:09:56;2.63;;;1.10;;
17330;SDS011;8783;52.448;4.638;2023-08-06T04:12:24;1.40;;;1.13;;
17330;SDS011;8783;52.448;4.638;2023-08-06T04:14:50;1.33;;;1.00;;
17330;SDS011;8783;52.448;4.638;2023-08-06T04:17:19;1.33;;;1.00;;
17330;SDS011;8783;52.448;4.638;2023-08-06T04:19:49;1.33;;;0.93;;
17330;SDS011;8783;52.448;4.638;2023-08-06T04:22:16;3.00;;;1.00;;
17330;SDS011;8783;52.448;4.638;2023-08-06T04:24:42;1.30;;;1.10;;
17330;SDS011;8783;52.448;4.638;2023-08-06T04:27:08;1.42;;;0.88;;
17330;SDS011;8783;52.448;4.638;2023-08-06T04:29:37;1.75;;;1.08;;
17330;SDS011;8783;52.448;4.638;2023-08-06T04:32:04;1.35;;;0.90;;
17330;SDS011;8783;52.448;4.638;2023-08-06T04:34:31;2.13;;;1.10;;
17330;SDS011;8783;52.448;4.638;2023-08-06T04:36:58;1.55;;;0.90;;
17330;SDS011;8783;52.448;4.638;2023-08-06T04:39:24;2.55;;;1.23;;
17330;SDS011;8783;52.448;4.638;2023-08-06T04:41:49;1.23;;;0.90;;
17330;SDS011;8783;52.448;4.638;2023-08-06T04:44:15;1.42;;;0.80;;
17330;SDS011;8783;52.448;4.638;2023-08-06T04:46:41;19.42;;;1.60;;
17330;SDS011;8783;52.448;4.638;2023-08-06T04:49:06;1.38;;;0.88;;
17330;SDS011;8783;52.448;4.638;2023-08-06T04:51:32;1.80;;;0.85;;
17330;SDS011;8783;52.448;4.638;2023-08-06T04:53:57;0.98;;;0.77;;
17330;SDS011;8783;52.448;4.638;2023-08-06T04:56:26;1.70;;;0.90;;
17330;SDS011;8783;52.448;4.638;2023-08-06T04:58:52;1.60;;;1.00;;
17330;SDS011;8783;52.448;4.638;2023-08-06T05:01:17;1.45;;;0.95;;
17330;SDS011;8783;52.448;4.638;2023-08-06T05:03:47;1.15;;;0.82;;
17330;SDS011;8783;52.448;4.638;2023-08-06T05:06:12;2.00;;;0.82;;
17330;SDS011;8783;52.448;4.638;2023-08-06T05:08:38;2.60;;;0.98;;
17330;SDS011;8783;52.448;4.638;2023-08-06T05:11:04;1.95;;;0.95;;
17330;SDS011;8783;52.448;4.638;2023-08-06T05:13:29;2.15;;;1.20;;
17330;SDS011;8783;52.448;4.638;2023-08-06T05:15:55;1.50;;;1.00;;
17330;SDS011;8783;52.448;4.638;2023-08-06T05:18:21;1.65;;;1.20;;
17330;SDS011;8783;52.448;4.638;2023-08-06T05:20:50;2.42;;;1.17;;
17330;SDS011;8783;52.448;4.638;2023-08-06T05:23:15;1.42;;;1.10;;
17330;SDS011;8783;52.448;4.638;2023-08-06T05:25:42;1.15;;;1.00;;
17330;SDS011;8783;52.448;4.638;2023-08-06T05:28:07;2.17;;;1.20;;
17330;SDS011;8783;52.448;4.638;2023-08-06T05:30:33;2.35;;;1.15;;
17330;SDS011;8783;52.448;4.638;2023-08-06T05:32:59;2.67;;;1.38;;
17330;SDS011;8783;52.448;4.638;2023-08-06T05:35:24;2.47;;;1.30;;
17330;SDS011;8783;52.448;4.638;2023-08-06T05:37:50;3.13;;;1.20;;
17330;SDS011;8783;52.448;4.638;2023-08-06T05:40:16;2.55;;;1.40;;
17330;SDS011;8783;52.448;4.638;2023-08-06T05:42:42;6.38;;;1.95;;
17330;SDS011;8783;52.448;4.638;2023-08-06T05:45:07;5.78;;;1.70;;
17330;SDS011;8783;52.448;4.638;2023-08-06T05:47:34;6.30;;;1.70;;
17330;SDS011;8783;52.448;4.638;2023-08-06T05:50:00;2.13;;;1.63;;
17330;SDS011;8783;52.448;4.638;2023-08-06T05:52:25;3.63;;;1.60;;
17330;SDS011;8783;52.448;4.638;2023-08-06T05:54:51;3.20;;;1.70;;
17330;SDS011;8783;52.448;4.638;2023-08-06T05:57:17;3.60;;;1.52;;
17330;SDS011;8783;52.448;4.638;2023-08-06T05:59:43;2.78;;;1.40;;
17330;SDS011;8783;52.448;4.638;2023-08-06T06:02:08;3.25;;;1.70;;
17330;SDS011;8783;52.448;4.638;2023-08-06T06:04:34;6.22;;;1.55;;
17330;SDS011;8783;52.448;4.638;2023-08-06T06:07:00;2.15;;;1.48;;
17330;SDS011;8783;52.448;4.638;2023-08-06T06:09:25;5.55;;;1.80;;
17330;SDS011;8783;52.448;4.638;2023-08-06T06:11:51;7.40;;;1.92;;
17330;SDS011;8783;52.448;4.638;2023-08-06T06:14:17;6.03;;;1.63;;
17330;SDS011;8783;52.448;4.638;2023-08-06T06:16:43;2.55;;;1.33;;
17330;SDS011;8783;52.448;4.638;2023-08-06T06:19:09;2.50;;;1.40;;
17330;SDS011;8783;52.448;4.638;2023-08-06T06:21:35;2.90;;;1.83;;
17330;SDS011;8783;52.448;4.638;2023-08-06T06:24:02;2.67;;;1.40;;
17330;SDS011;8783;52.448;4.638;2023-08-06T06:26:28;2.75;;;1.45;;
17330;SDS011;8783;52.448;4.638;2023-08-06T06:28:55;2.78;;;1.50;;
17330;SDS011;8783;52.448;4.638;2023-08-06T06:31:20;4.68;;;1.60;;
17330;SDS011;8783;52.448;4.638;2023-08-06T06:33:46;1.98;;;1.48;;
17330;SDS011;8783;52.448;4.638;2023-08-06T06:36:11;3.17;;;1.88;;
17330;SDS011;8783;52.448;4.638;2023-08-06T06:38:37;3.88;;;1.70;;
17330;SDS011;8783;52.448;4.638;2023-08-06T06:41:03;2.83;;;1.65;;
17330;SDS011;8783;52.448;4.638;2023-08-06T06:43:29;4.22;;;1.70;;
17330;SDS011;8783;52.448;4.638;2023-08-06T06:45:58;3.88;;;1.70;;
17330;SDS011;8783;52.448;4.638;2023-08-06T06:48:25;2.83;;;1.70;;
17330;SDS011;8783;52.448;4.638;2023-08-06T06:50:56;2.60;;;1.55;;
17330;SDS011;8783;52.448;4.638;2023-08-06T06:53:21;3.28;;;2.00;;
17330;SDS011;8783;52.448;4.638;2023-08-06T06:55:54;4.82;;;1.90;;
17330;SDS011;8783;52.448;4.638;2023-08-06T06:58:20;5.57;;;2.05;;
17330;SDS011;8783;52.448;4.638;2023-08-06T07:00:46;4.45;;;2.50;;
17330;SDS011;8783;52.448;4.638;2023-08-06T07:03:13;5.20;;;2.28;;
17330;SDS011;8783;52.448;4.638;2023-08-06T07:05:39;9.02;;;2.83;;
17330;SDS011;8783;52.448;4.638;2023-08-06T07:08:05;10.33;;;3.30;;
17330;SDS011;8783;52.448;4.638;2023-08-06T07:10:31;6.05;;;2.22;;
17330;SDS011;8783;52.448;4.638;2023-08-06T07:12:59;7.68;;;2.65;;
17330;SDS011;8783;52.448;4.638;2023-08-06T07:15:25;5.80;;;3.05;;
17330;SDS011;8783;52.448;4.638;2023-08-06T07:17:51;7.15;;;2.92;;
17330;SDS011;8783;52.448;4.638;2023-08-06T07:20:16;7.50;;;3.00;;
17330;SDS011;8783;52.448;4.638;2023-08-06T07:22:43;4.90;;;2.85;;
17330;SDS011;8783;52.448;4.638;2023-08-06T07:25:09;8.32;;;2.65;;
17330;SDS011;8783;52.448;4.638;2023-08-06T07:27:38;9.02;;;2.92;;
17330;SDS011;8783;52.448;4.638;2023-08-06T07:30:04;27.42;;;6.43;;
17330;SDS011;8783;52.448;4.638;2023-08-06T07:32:30;27.52;;;7.05;;
17330;SDS011;8783;52.448;4.638;2023-08-06T07:34:56;19.33;;;6.07;;
17330;SDS011;8783;52.448;4.638;2023-08-06T07:37:25;17.30;;;4.82;;
17330;SDS011;8783;52.448;4.638;2023-08-06T07:39:53;14.80;;;4.65;;
17330;SDS011;8783;52.448;4.638;2023-08-06T07:42:19;13.57;;;4.25;;
17330;SDS011;8783;52.448;4.638;2023-08-06T07:44:50;14.00;;;4.10;;
17330;SDS011;8783;52.448;4.638;2023-08-06T07:47:19;14.18;;;3.30;;
17330;SDS011;8783;52.448;4.638;2023-08-06T07:49:45;12.10;;;3.47;;
17330;SDS011;8783;52.448;4.638;2023-08-06T07:52:11;9.98;;;3.33;;
17330;SDS011;8783;52.448;4.638;2023-08-06T07:54:36;8.98;;;3.10;;
17330;SDS011;8783;52.448;4.638;2023-08-06T07:57:05;12.60;;;3.70;;
17330;SDS011;8783;52.448;4.638;2023-08-06T07:59:33;6.80;;;2.80;;
17330;SDS011;8783;52.448;4.638;2023-08-06T08:01:59;7.82;;;3.20;;
17330;SDS011;8783;52.448;4.638;2023-08-06T08:04:29;8.23;;;2.55;;
17330;SDS011;8783;52.448;4.638;2023-08-06T08:06:55;7.25;;;3.10;;
17330;SDS011;8783;52.448;4.638;2023-08-06T08:09:20;6.97;;;2.97;;
17330;SDS011;8783;52.448;4.638;2023-08-06T08:11:49;14.85;;;3.72;;
17330;SDS011;8783;52.448;4.638;2023-08-06T08:14:15;12.10;;;3.40;;
17330;SDS011;8783;52.448;4.638;2023-08-06T08:16:43;8.90;;;2.83;;
17330;SDS011;8783;52.448;4.638;2023-08-06T08:19:09;6.55;;;2.50;;
17330;SDS011;8783;52.448;4.638;2023-08-06T08:21:35;6.50;;;2.60;;
17330;SDS011;8783;52.448;4.638;2023-08-06T08:24:01;9.13;;;2.65;;
17330;SDS011;8783;52.448;4.638;2023-08-06T08:26:29;4.97;;;2.13;;
17330;SDS011;8783;52.448;4.638;2023-08-06T08:28:55;7.40;;;2.40;;
17330;SDS011;8783;52.448;4.638;2023-08-06T08:31:22;6.57;;;1.92;;
17330;SDS011;8783;52.448;4.638;2023-08-06T08:33:47;5.72;;;2.10;;
17330;SDS011;8783;52.448;4.638;2023-08-06T08:36:13;6.00;;;2.53;;
17330;SDS011;8783;52.448;4.638;2023-08-06T08:38:39;4.60;;;2.00;;
17330;SDS011;8783;52.448;4.638;2023-08-06T08:41:05;8.55;;;1.98;;
17330;SDS011;8783;52.448;4.638;2023-08-06T08:43:31;5.35;;;1.90;;
17330;SDS011;8783;52.448;4.638;2023-08-06T08:45:57;4.38;;;1.90;;
17330;SDS011;8783;52.448;4.638;2023-08-06T08:48:24;4.18;;;1.52;;
17330;SDS011;8783;52.448;4.638;2023-08-06T08:50:53;5.40;;;1.40;;
17330;SDS011;8783;52.448;4.638;2023-08-06T08:53:21;4.85;;;1.50;;
17330;SDS011;8783;52.448;4.638;2023-08-06T08:55:50;5.20;;;1.50;;
17330;SDS011;8783;52.448;4.638;2023-08-06T08:58:16;5.00;;;1.63;;
17330;SDS011;8783;52.448;4.638;2023-08-06T09:00:42;3.22;;;1.35;;
17330;SDS011;8783;52.448;4.638;2023-08-06T09:03:08;6.03;;;1.70;;
17330;SDS011;8783;52.448;4.638;2023-08-06T09:05:33;5.55;;;1.30;;
17330;SDS011;8783;52.448;4.638;2023-08-06T09:08:02;5.47;;;1.63;;
17330;SDS011;8783;52.448;4.638;2023-08-06T09:10:29;3.50;;;1.52;;
17330;SDS011;8783;52.448;4.638;2023-08-06T09:12:58;4.80;;;1.52;;
17330;SDS011;8783;52.448;4.638;2023-08-06T09:15:41;6.50;;;1.65;;
17330;SDS011;8783;52.448;4.638;2023-08-06T09:18:09;3.53;;;1.55;;
17330;SDS011;8783;52.448;4.638;2023-08-06T09:20:38;5.25;;;1.60;;
17330;SDS011;8783;52.448;4.638;2023-08-06T09:23:08;5.05;;;1.70;;
17330;SDS011;8783;52.448;4.638;2023-08-06T09:25:36;5.13;;;1.90;;
17330;SDS011;8783;52.448;4.638;2023-08-06T09:28:06;5.97;;;2.25;;
17330;SDS011;8783;52.448;4.638;2023-08-06T09:30:33;4.47;;;2.20;;
17330;SDS011;8783;52.448;4.638;2023-08-06T09:33:00;5.40;;;1.88;;
17330;SDS011;8783;52.448;4.638;2023-08-06T09:35:30;4.70;;;1.65;;
17330;SDS011;8783;52.448;4.638;2023-08-06T09:38:06;4.85;;;1.70;;
17330;SDS011;8783;52.448;4.638;2023-08-06T09:40:33;4.97;;;1.63;;
17330;SDS011;8783;52.448;4.638;2023-08-06T09:43:01;4.78;;;1.55;;
17330;SDS011;8783;52.448;4.638;2023-08-06T09:45:33;6.50;;;1.23;;
17330;SDS011;8783;52.448;4.638;2023-08-06T09:48:03;3.80;;;1.30;;
17330;SDS011;8783;52.448;4.638;2023-08-06T09:50:31;3.50;;;1.17;;
17330;SDS011;8783;52.448;4.638;2023-08-06T09:52:59;5.20;;;1.50;;
17330;SDS011;8783;52.448;4.638;2023-08-06T09:55:26;6.32;;;1.50;;
17330;SDS011;8783;52.448;4.638;2023-08-06T09:57:52;4.18;;;1.30;;
17330;SDS011;8783;52.448;4.638;2023-08-06T10:00:25;4.10;;;1.48;;
17330;SDS011;8783;52.448;4.638;2023-08-06T10:02:54;3.92;;;1.40;;
17330;SDS011;8783;52.448;4.638;2023-08-06T10:05:27;4.75;;;1.42;;
17330;SDS011;8783;52.448;4.638;2023-08-06T10:07:53;3.67;;;1.55;;
17330;SDS011;8783;52.448;4.638;2023-08-06T10:10:22;3.45;;;1.40;;
17330;SDS011;8783;52.448;4.638;2023-08-06T10:12:50;5.32;;;1.80;;
17330;SDS011;8783;52.448;4.638;2023-08-06T10:15:23;3.67;;;1.30;;
17330;SDS011;8783;52.448;4.638;2023-08-06T10:17:52;3.55;;;1.48;;
17330;SDS011;8783;52.448;4.638;2023-08-06T10:20:21;3.45;;;1.42;;
17330;SDS011;8783;52.448;4.638;2023-08-06T10:25:42;5.25;;;1.50;;
17330;SDS011;8783;52.448;4.638;2023-08-06T10:28:12;7.50;;;1.80;;
17330;SDS011;8783;52.448;4.638;2023-08-06T10:33:14;3.83;;;1.35;;
17330;SDS011;8783;52.448;4.638;2023-08-06T10:35:48;6.65;;;1.45;;
17330;SDS011;8783;52.448;4.638;2023-08-06T10:38:15;5.10;;;1.42;;
17330;SDS011;8783;52.448;4.638;2023-08-06T10:46:03;5.90;;;1.38;;
17330;SDS011;8783;52.448;4.638;2023-08-06T10:48:35;6.70;;;1.60;;
17330;SDS011;8783;52.448;4.638;2023-08-06T10:51:10;6.40;;;1.38;;
17330;SDS011;8783;52.448;4.638;2023-08-06T10:53:37;4.88;;;1.40;;
17330;SDS011;8783;52.448;4.638;2023-08-06T10:56:12;3.47;;;1.67;;
17330;SDS011;8783;52.448;4.638;2023-08-06T10:58:42;5.10;;;1.65;;
17330;SDS011;8783;52.448;4.638;2023-08-06T11:01:12;3.63;;;1.55;;
17330;SDS011;8783;52.448;4.638;2023-08-06T11:03:38;3.58;;;1.70;;
17330;SDS011;8783;52.448;4.638;2023-08-06T11:06:07;5.82;;;1.75;;
17330;SDS011;8783;52.448;4.638;2023-08-06T11:08:34;4.18;;;1.88;;
17330;SDS011;8783;52.448;4.638;2023-08-06T11:11:14;6.85;;;2.47;;
17330;SDS011;8783;52.448;4.638;2023-08-06T11:13:43;7.38;;;2.40;;
17330;SDS011;8783;52.448;4.638;2023-08-06T11:16:11;8.45;;;2.03;;
17330;SDS011;8783;52.448;4.638;2023-08-06T11:18:42;9.50;;;2.15;;
17330;SDS011;8783;52.448;4.638;2023-08-06T11:21:08;4.88;;;2.17;;
17330;SDS011;8783;52.448;4.638;2023-08-06T11:23:34;5.57;;;1.92;;
17330;SDS011;8783;52.448;4.638;2023-08-06T11:26:00;7.00;;;1.85;;
17330;SDS011;8783;52.448;4.638;2023-08-06T11:28:29;5.45;;;2.05;;
17330;SDS011;8783;52.448;4.638;2023-08-06T11:30:55;5.25;;;1.67;;
17330;SDS011;8783;52.448;4.638;2023-08-06T11:33:25;4.57;;;1.77;;
17330;SDS011;8783;52.448;4.638;2023-08-06T11:35:54;5.57;;;1.60;;
17330;SDS011;8783;52.448;4.638;2023-08-06T11:38:21;5.85;;;1.48;;
17330;SDS011;8783;52.448;4.638;2023-08-06T11:40:47;4.47;;;1.60;;
17330;SDS011;8783;52.448;4.638;2023-08-06T11:43:13;3.58;;;1.67;;
17330;SDS011;8783;52.448;4.638;2023-08-06T11:45:39;5.68;;;2.00;;
17330;SDS011;8783;52.448;4.638;2023-08-06T11:48:06;5.82;;;1.83;;
17330;SDS011;8783;52.448;4.638;2023-08-06T11:50:36;3.72;;;1.60;;
17330;SDS011;8783;52.448;4.638;2023-08-06T11:53:03;4.00;;;1.67;;
17330;SDS011;8783;52.448;4.638;2023-08-06T11:55:29;3.70;;;1.80;;
17330;SDS011;8783;52.448;4.638;2023-08-06T11:58:02;4.25;;;1.60;;
17330;SDS011;8783;52.448;4.638;2023-08-06T12:00:31;5.10;;;1.40;;
17330;SDS011;8783;52.448;4.638;2023-08-06T12:02:57;4.38;;;1.60;;
17330;SDS011;8783;52.448;4.638;2023-08-06T12:05:23;6.47;;;1.70;;
17330;SDS011;8783;52.448;4.638;2023-08-06T12:07:56;2.88;;;1.73;;
17330;SDS011;8783;52.448;4.638;2023-08-06T12:10:27;6.57;;;1.95;;
17330;SDS011;8783;52.448;4.638;2023-08-06T12:12:54;3.00;;;1.60;;
17330;SDS011;8783;52.448;4.638;2023-08-06T12:15:20;4.97;;;1.50;;
17330;SDS011;8783;52.448;4.638;2023-08-06T12:17:46;4.38;;;1.77;;
17330;SDS011;8783;52.448;4.638;2023-08-06T12:20:12;5.70;;;2.08;;
17330;SDS011;8783;52.448;4.638;2023-08-06T12:22:38;5.28;;;1.90;;
17330;SDS011;8783;52.448;4.638;2023-08-06T12:27:36;4.05;;;1.60;;
17330;SDS011;8783;52.448;4.638;2023-08-06T12:30:03;4.28;;;1.63;;
17330;SDS011;8783;52.448;4.638;2023-08-06T12:32:29;2.58;;;1.40;;
17330;SDS011;8783;52.448;4.638;2023-08-06T12:34:55;3.60;;;1.30;;
17330;SDS011;8783;52.448;4.638;2023-08-06T12:37:24;3.03;;;1.38;;
17330;SDS011;8783;52.448;4.638;2023-08-06T12:39:50;5.75;;;1.55;;
17330;SDS011;8783;52.448;4.638;2023-08-06T12:42:16;6.43;;;1.90;;
17330;SDS011;8783;52.448;4.638;2023-08-06T12:44:42;6.15;;;1.92;;
17330;SDS011;8783;52.448;4.638;2023-08-06T12:47:08;4.35;;;1.70;;
17330;SDS011;8783;52.448;4.638;2023-08-06T12:49:34;8.57;;;1.65;;
17330;SDS011;8783;52.448;4.638;2023-08-06T12:52:00;4.35;;;1.85;;
17330;SDS011;8783;52.448;4.638;2023-08-06T12:54:26;4.05;;;1.40;;
17330;SDS011;8783;52.448;4.638;2023-08-06T12:57:00;11.02;;;1.67;;
17330;SDS011;8783;52.448;4.638;2023-08-06T12:59:27;4.45;;;1.73;;
17330;SDS011;8783;52.448;4.638;2023-08-06T13:01:55;3.88;;;1.50;;
17330;SDS011;8783;52.448;4.638;2023-08-06T13:04:23;3.20;;;1.70;;
17330;SDS011;8783;52.448;4.638;2023-08-06T13:06:52;3.55;;;1.35;;
17330;SDS011;8783;52.448;4.638;2023-08-06T13:09:18;5.75;;;1.80;;
17330;SDS011;8783;52.448;4.638;2023-08-06T13:11:45;3.13;;;1.83;;
17330;SDS011;8783;52.448;4.638;2023-08-06T13:14:12;4.28;;;1.70;;
17330;SDS011;8783;52.448;4.638;2023-08-06T13:16:42;5.45;;;1.55;;
17330;SDS011;8783;52.448;4.638;2023-08-06T13:19:09;4.97;;;1.30;;
17330;SDS011;8783;52.448;4.638;2023-08-06T13:24:07;2.72;;;1.27;;
17330;SDS011;8783;52.448;4.638;2023-08-06T13:26:33;2.70;;;1.25;;
17330;SDS011;8783;52.448;4.638;2023-08-06T13:29:02;3.33;;;1.15;;
17330;SDS011;8783;52.448;4.638;2023-08-06T13:31:28;3.15;;;1.30;;
17330;SDS011;8783;52.448;4.638;2023-08-06T13:33:54;3.67;;;1.20;;
17330;SDS011;8783;52.448;4.638;2023-08-06T13:36:21;5.70;;;1.63;;
17330;SDS011;8783;52.448;4.638;2023-08-06T13:38:53;5.47;;;1.70;;
17330;SDS011;8783;52.448;4.638;2023-08-06T13:41:19;7.03;;;1.90;;
17330;SDS011;8783;52.448;4.638;2023-08-06T13:43:48;10.35;;;2.22;;
17330;SDS011;8783;52.448;4.638;2023-08-06T13:46:15;10.27;;;2.22;;
17330;SDS011;8783;52.448;4.638;2023-08-06T13:48:45;7.40;;;1.50;;
17330;SDS011;8783;52.448;4.638;2023-08-06T13:51:12;7.50;;;2.03;;
17330;SDS011;8783;52.448;4.638;2023-08-06T13:53:41;8.85;;;2.15;;
17330;SDS011;8783;52.448;4.638;2023-08-06T13:56:09;5.85;;;2.03;;
17330;SDS011;8783;52.448;4.638;2023-08-06T13:58:40;6.10;;;2.00;;
17330;SDS011;8783;52.448;4.638;2023-08-06T14:01:09;8.27;;;2.28;;
17330;SDS011;8783;52.448;4.638;2023-08-06T14:03:36;8.73;;;1.70;;
17330;SDS011;8783;52.448;4.638;2023-08-06T14:06:01;7.55;;;1.50;;
17330;SDS011;8783;52.448;4.638;2023-08-06T14:08:27;10.68;;;2.03;;
17330;SDS011;8783;52.448;4.638;2023-08-06T14:10:53;7.60;;;1.65;;
17330;SDS011;8783;52.448;4.638;2023-08-06T14:13:19;8.60;;;1.70;;
17330;SDS011;8783;52.448;4.638;2023-08-06T14:15:48;7.88;;;1.83;;
17330;SDS011;8783;52.448;4.638;2023-08-06T14:18:14;8.40;;;2.15;;
17330;SDS011;8783;52.448;4.638;2023-08-06T14:20:40;8.40;;;1.80;;
17330;SDS011;8783;52.448;4.638;2023-08-06T14:23:09;7.30;;;1.50;;
17330;SDS011;8783;52.448;4.638;2023-08-06T14:25:38;9.10;;;1.90;;
17330;SDS011;8783;52.448;4.638;2023-08-06T14:28:04;5.55;;;1.40;;
17330;SDS011;8783;52.448;4.638;2023-08-06T14:30:31;7.88;;;1.70;;
17330;SDS011;8783;52.448;4.638;2023-08-06T14:32:58;8.38;;;1.50;;
17330;SDS011;8783;52.448;4.638;2023-08-06T14:35:25;7.35;;;1.60;;
17330;SDS011;8783;52.448;4.638;2023-08-06T14:37:54;8.82;;;2.20;;
17330;SDS011;8783;52.448;4.638;2023-08-06T14:40:20;8.85;;;1.70;;
17330;SDS011;8783;52.448;4.638;2023-08-06T14:42:45;8.45;;;2.33;;
17330;SDS011;8783;52.448;4.638;2023-08-06T14:45:13;12.82;;;2.67;;
17330;SDS011;8783;52.448;4.638;2023-08-06T14:47:40;10.15;;;2.08;;
17330;SDS011;8783;52.448;4.638;2023-08-06T14:50:05;7.18;;;2.10;;
17330;SDS011;8783;52.448;4.638;2023-08-06T14:52:31;9.70;;;2.20;;
17330;SDS011;8783;52.448;4.638;2023-08-06T14:54:57;17.50;;;2.95;;
17330;SDS011;8783;52.448;4.638;2023-08-06T14:57:22;7.90;;;2.25;;
17330;SDS011;8783;52.448;4.638;2023-08-06T14:59:52;9.80;;;2.28;;
17330;SDS011;8783;52.448;4.638;2023-08-06T15:02:20;10.77;;;2.20;;
17330;SDS011;8783;52.448;4.638;2023-08-06T15:04:47;8.93;;;2.00;;
17330;SDS011;8783;52.448;4.638;2023-08-06T15:07:12;13.15;;;2.00;;
17330;SDS011;8783;52.448;4.638;2023-08-06T15:09:38;11.52;;;2.45;;
17330;SDS011;8783;52.448;4.638;2023-08-06T15:12:04;11.27;;;2.33;;
17330;SDS011;8783;52.448;4.638;2023-08-06T15:14:30;10.77;;;2.65;;
17330;SDS011;8783;52.448;4.638;2023-08-06T15:16:55;11.25;;;2.30;;
17330;SDS011;8783;52.448;4.638;2023-08-06T15:19:22;6.30;;;1.98;;
17330;SDS011;8783;52.448;4.638;2023-08-06T15:21:49;13.70;;;2.35;;
17330;SDS011;8783;52.448;4.638;2023-08-06T15:24:15;13.40;;;2.55;;